sensor_id;sensor_type;location;lat;lon;timestamp;pressure;altitude;pressure_sealevel;temperature;humidity
42247;BME280;27913;42.722;23.268;2023-05-25T00:03:46;94853.00;;;15.84;79.58
42247;BME280;27913;42.722;23.268;2023-05-25T00:06:14;94877.69;;;15.66;80.88
42247;BME280;27913;42.722;23.268;2023-05-25T00:08:39;94975.88;;;16.15;81.57
42247;BME280;27913;42.722;23.268;2023-05-25T00:11:05;94898.09;;;15.65;81.89
42247;BME280;27913;42.722;23.268;2023-05-25T00:13:30;94986.63;;;16.21;81.74
42247;BME280;27913;42.722;23.268;2023-05-25T00:15:56;94941.47;;;16.09;81.23
42247;BME280;27913;42.722;23.268;2023-05-25T00:18:22;94943.44;;;16.13;80.86
42247;BME280;27913;42.722;23.268;2023-05-25T00:20:49;94909.19;;;15.93;80.41
42247;BME280;27913;42.722;23.268;2023-05-25T00:23:18;94926.75;;;16.13;80.77
42247;BME280;27913;42.722;23.268;2023-05-25T00:25:44;94979.47;;;16.52;81.03
42247;BME280;27913;42.722;23.268;2023-05-25T00:28:10;94951.75;;;16.36;80.56
42247;BME280;27913;42.722;23.268;2023-05-25T00:30:36;94979.06;;;16.55;80.36
42247;BME280;27913;42.722;23.268;2023-05-25T00:33:01;94971.53;;;16.52;81.18
42247;BME280;27913;42.722;23.268;2023-05-25T00:35:27;94981.34;;;16.51;80.81
42247;BME280;27913;42.722;23.268;2023-05-25T00:37:52;94975.34;;;16.56;80.35
42247;BME280;27913;42.722;23.268;2023-05-25T00:40:18;94955.78;;;16.38;79.95
42247;BME280;27913;42.722;23.268;2023-05-25T00:42:44;94974.75;;;16.54;79.76
42247;BME280;27913;42.722;23.268;2023-05-25T00:45:10;94983.53;;;16.54;79.56
42247;BME280;27913;42.722;23.268;2023-05-25T00:47:36;94948.16;;;16.30;79.55
42247;BME280;27913;42.722;23.268;2023-05-25T00:50:02;94977.28;;;16.49;79.17
42247;BME280;27913;42.722;23.268;2023-05-25T00:52:32;94871.28;;;15.74;79.62
42247;BME280;27913;42.722;23.268;2023-05-25T00:54:59;94974.59;;;16.37;79.92
42247;BME280;27913;42.722;23.268;2023-05-25T00:57:27;94978.84;;;16.38;79.86
42247;BME280;27913;42.722;23.268;2023-05-25T00:59:53;94919.66;;;15.88;80.18
42247;BME280;27913;42.722;23.268;2023-05-25T01:02:20;94927.84;;;15.86;80.53
42247;BME280;27913;42.722;23.268;2023-05-25T01:04:51;94985.44;;;16.16;81.01
42247;BME280;27913;42.722;23.268;2023-05-25T01:07:20;94986.84;;;16.19;82.23
42247;BME280;27913;42.722;23.268;2023-05-25T01:10:04;94977.13;;;16.13;82.25
42247;BME280;27913;42.722;23.268;2023-05-25T01:12:34;94991.84;;;16.27;81.82
42247;BME280;27913;42.722;23.268;2023-05-25T01:15:02;94990.81;;;16.28;81.31
42247;BME280;27913;42.722;23.268;2023-05-25T01:17:28;94991.06;;;16.27;80.77
42247;BME280;27913;42.722;23.268;2023-05-25T01:19:53;94985.38;;;16.23;80.64
42247;BME280;27913;42.722;23.268;2023-05-25T01:22:34;94986.91;;;16.31;80.34
42247;BME280;27913;42.722;23.268;2023-05-25T01:28:24;94945.03;;;16.02;79.90
42247;BME280;27913;42.722;23.268;2023-05-25T01:30:52;94954.13;;;16.06;79.87
42247;BME280;27913;42.722;23.268;2023-05-25T01:33:20;94979.25;;;16.23;79.84
42247;BME280;27913;42.722;23.268;2023-05-25T01:35:47;94928.13;;;15.97;79.95
42247;BME280;27913;42.722;23.268;2023-05-25T01:38:13;94971.06;;;16.24;79.80
42247;BME280;27913;42.722;23.268;2023-05-25T01:40:38;94966.13;;;16.28;79.74
42247;BME280;27913;42.722;23.268;2023-05-25T01:43:04;94866.00;;;15.55;79.65
42247;BME280;27913;42.722;23.268;2023-05-25T01:45:30;94965.41;;;16.21;79.55
42247;BME280;27913;42.722;23.268;2023-05-25T01:50:53;94969.53;;;16.16;79.69
42247;BME280;27913;42.722;23.268;2023-05-25T01:53:25;94816.91;;;15.15;79.61
42247;BME280;27913;42.722;23.268;2023-05-25T01:56:02;94960.72;;;16.04;79.44
42247;BME280;27913;42.722;23.268;2023-05-25T01:58:41;94967.84;;;16.03;80.11
42247;BME280;27913;42.722;23.268;2023-05-25T02:01:08;94910.47;;;15.08;82.29
42247;BME280;27913;42.722;23.268;2023-05-25T02:03:36;94976.69;;;15.08;84.66
42247;BME280;27913;42.722;23.268;2023-05-25T02:06:02;94886.56;;;14.39;85.48
42247;BME280;27913;42.722;23.268;2023-05-25T02:08:28;94958.28;;;14.56;87.31
42247;BME280;27913;42.722;23.268;2023-05-25T02:10:54;94958.38;;;14.42;88.24
42247;BME280;27913;42.722;23.268;2023-05-25T02:13:19;94989.22;;;14.55;88.43
42247;BME280;27913;42.722;23.268;2023-05-25T02:15:45;94987.50;;;14.35;89.16
42247;BME280;27913;42.722;23.268;2023-05-25T02:18:10;94868.88;;;13.54;89.67
42247;BME280;27913;42.722;23.268;2023-05-25T02:20:38;94982.59;;;14.39;89.30
42247;BME280;27913;42.722;23.268;2023-05-25T02:23:04;94911.38;;;14.05;88.65
42247;BME280;27913;42.722;23.268;2023-05-25T02:25:29;94994.47;;;14.62;88.28
42247;BME280;27913;42.722;23.268;2023-05-25T02:27:55;94925.47;;;14.31;87.46
42247;BME280;27913;42.722;23.268;2023-05-25T02:30:20;94965.53;;;14.67;87.75
42247;BME280;27913;42.722;23.268;2023-05-25T02:32:46;94991.66;;;14.96;87.53
42247;BME280;27913;42.722;23.268;2023-05-25T02:35:11;94994.03;;;15.04;86.85
42247;BME280;27913;42.722;23.268;2023-05-25T02:37:37;94983.22;;;15.06;86.06
42247;BME280;27913;42.722;23.268;2023-05-25T02:40:04;94994.78;;;15.12;85.74
42247;BME280;27913;42.722;23.268;2023-05-25T02:42:29;94998.84;;;15.14;85.60
42247;BME280;27913;42.722;23.268;2023-05-25T02:44:55;95009.41;;;15.21;85.62
42247;BME280;27913;42.722;23.268;2023-05-25T02:47:20;94939.41;;;14.78;85.51
42247;BME280;27913;42.722;23.268;2023-05-25T02:49:46;95010.56;;;15.25;85.54
42247;BME280;27913;42.722;23.268;2023-05-25T02:52:12;95021.53;;;15.36;85.08
42247;BME280;27913;42.722;23.268;2023-05-25T02:54:38;94967.53;;;15.04;84.17
42247;BME280;27913;42.722;23.268;2023-05-25T02:57:04;95016.41;;;15.34;84.78
42247;BME280;27913;42.722;23.268;2023-05-25T02:59:29;94989.66;;;15.17;84.98
42247;BME280;27913;42.722;23.268;2023-05-25T03:01:55;94969.78;;;15.07;84.46
42247;BME280;27913;42.722;23.268;2023-05-25T03:04:20;94960.84;;;15.02;84.12
42247;BME280;27913;42.722;23.268;2023-05-25T03:06:46;95019.19;;;15.46;84.08
42247;BME280;27913;42.722;23.268;2023-05-25T03:09:12;95009.44;;;15.40;83.88
42247;BME280;27913;42.722;23.268;2023-05-25T03:11:38;95026.03;;;15.54;83.78
42247;BME280;27913;42.722;23.268;2023-05-25T03:14:04;95023.38;;;15.54;84.13
42247;BME280;27913;42.722;23.268;2023-05-25T03:16:30;95021.13;;;15.57;84.10
42247;BME280;27913;42.722;23.268;2023-05-25T03:18:55;95017.06;;;15.55;83.81
42247;BME280;27913;42.722;23.268;2023-05-25T03:21:21;95027.59;;;15.62;82.71
42247;BME280;27913;42.722;23.268;2023-05-25T03:23:48;94998.78;;;15.46;82.03
42247;BME280;27913;42.722;23.268;2023-05-25T03:26:14;95009.69;;;15.57;82.22
42247;BME280;27913;42.722;23.268;2023-05-25T03:28:39;95027.25;;;15.77;82.55
42247;BME280;27913;42.722;23.268;2023-05-25T03:31:05;94976.72;;;15.53;82.18
42247;BME280;27913;42.722;23.268;2023-05-25T03:33:31;94918.00;;;15.12;82.25
42247;BME280;27913;42.722;23.268;2023-05-25T03:35:57;95009.69;;;15.57;82.60
42247;BME280;27913;42.722;23.268;2023-05-25T03:38:23;95006.41;;;15.62;82.10
42247;BME280;27913;42.722;23.268;2023-05-25T03:40:48;94917.66;;;15.01;82.03
42247;BME280;27913;42.722;23.268;2023-05-25T03:43:14;95007.41;;;15.61;82.46
42247;BME280;27913;42.722;23.268;2023-05-25T03:45:39;95015.28;;;15.49;82.76
42247;BME280;27913;42.722;23.268;2023-05-25T03:48:05;94952.03;;;15.08;82.99
42247;BME280;27913;42.722;23.268;2023-05-25T03:50:31;95026.41;;;15.57;82.74
42247;BME280;27913;42.722;23.268;2023-05-25T03:52:56;95043.16;;;15.77;81.36
42247;BME280;27913;42.722;23.268;2023-05-25T03:55:21;95044.28;;;15.88;80.94
42247;BME280;27913;42.722;23.268;2023-05-25T03:57:47;95050.13;;;15.97;80.46
42247;BME280;27913;42.722;23.268;2023-05-25T04:00:14;95053.09;;;16.07;80.33
42247;BME280;27913;42.722;23.268;2023-05-25T04:02:39;95048.31;;;16.16;81.03
42247;BME280;27913;42.722;23.268;2023-05-25T04:05:05;95028.06;;;16.22;80.54
42247;BME280;27913;42.722;23.268;2023-05-25T04:07:31;94991.41;;;16.12;79.88
42247;BME280;27913;42.722;23.268;2023-05-25T04:09:56;95024.09;;;16.43;79.80
42247;BME280;27913;42.722;23.268;2023-05-25T04:12:24;94959.44;;;16.06;79.25
42247;BME280;27913;42.722;23.268;2023-05-25T04:14:49;95045.81;;;16.71;78.88
42247;BME280;27913;42.722;23.268;2023-05-25T04:17:15;95069.44;;;16.91;78.66
42247;BME280;27913;42.722;23.268;2023-05-25T04:19:41;95063.31;;;16.90;78.21
42247;BME280;27913;42.722;23.268;2023-05-25T04:22:07;95040.16;;;16.67;78.08
42247;BME280;27913;42.722;23.268;2023-05-25T04:24:32;95046.66;;;16.52;78.58
42247;BME280;27913;42.722;23.268;2023-05-25T04:26:58;95011.25;;;16.09;78.95
42247;BME280;27913;42.722;23.268;2023-05-25T04:29:24;95079.47;;;16.39;79.86
42247;BME280;27913;42.722;23.268;2023-05-25T04:31:49;95055.16;;;16.05;82.66
42247;BME280;27913;42.722;23.268;2023-05-25T04:34:15;95069.38;;;16.11;82.10
42247;BME280;27913;42.722;23.268;2023-05-25T04:36:41;95088.25;;;16.21;82.13
42247;BME280;27913;42.722;23.268;2023-05-25T04:39:07;95059.00;;;15.84;82.35
42247;BME280;27913;42.722;23.268;2023-05-25T04:41:34;95093.63;;;16.14;82.93
42247;BME280;27913;42.722;23.268;2023-05-25T04:44:00;95056.56;;;15.82;83.66
42247;BME280;27913;42.722;23.268;2023-05-25T04:46:27;95048.69;;;15.75;84.28
42247;BME280;27913;42.722;23.268;2023-05-25T04:48:53;95089.84;;;16.03;82.82
42247;BME280;27913;42.722;23.268;2023-05-25T04:51:19;95080.53;;;15.94;81.45
42247;BME280;27913;42.722;23.268;2023-05-25T04:53:44;95052.53;;;15.79;82.38
42247;BME280;27913;42.722;23.268;2023-05-25T04:56:10;95060.69;;;16.03;82.55
42247;BME280;27913;42.722;23.268;2023-05-25T04:58:35;95071.94;;;16.36;81.70
42247;BME280;27913;42.722;23.268;2023-05-25T05:01:01;94965.75;;;15.87;80.64
42247;BME280;27913;42.722;23.268;2023-05-25T05:03:26;95068.53;;;16.66;80.28
42247;BME280;27913;42.722;23.268;2023-05-25T05:05:52;95066.66;;;16.86;79.66
42247;BME280;27913;42.722;23.268;2023-05-25T05:08:18;95076.84;;;17.01;78.26
42247;BME280;27913;42.722;23.268;2023-05-25T05:10:43;95080.84;;;17.10;78.13
42247;BME280;27913;42.722;23.268;2023-05-25T05:13:09;95075.09;;;17.13;77.37
42247;BME280;27913;42.722;23.268;2023-05-25T05:15:35;95052.69;;;16.90;77.56
42247;BME280;27913;42.722;23.268;2023-05-25T05:18:00;95045.41;;;16.86;77.52
42247;BME280;27913;42.722;23.268;2023-05-25T05:20:26;95075.09;;;16.83;78.05
42247;BME280;27913;42.722;23.268;2023-05-25T05:22:52;95076.91;;;16.82;78.63
42247;BME280;27913;42.722;23.268;2023-05-25T05:25:18;95026.97;;;16.41;78.46
42247;BME280;27913;42.722;23.268;2023-05-25T05:27:43;95083.66;;;16.66;79.91
42247;BME280;27913;42.722;23.268;2023-05-25T05:30:09;95080.06;;;16.60;80.98
42247;BME280;27913;42.722;23.268;2023-05-25T05:32:35;95091.47;;;16.61;80.89
42247;BME280;27913;42.722;23.268;2023-05-25T05:35:00;95096.69;;;16.67;80.86
42247;BME280;27913;42.722;23.268;2023-05-25T05:37:25;95095.91;;;16.67;80.60
42247;BME280;27913;42.722;23.268;2023-05-25T05:39:51;95095.31;;;16.65;81.05
42247;BME280;27913;42.722;23.268;2023-05-25T05:42:17;95073.19;;;16.52;80.72
42247;BME280;27913;42.722;23.268;2023-05-25T05:44:43;95070.81;;;16.63;81.61
42247;BME280;27913;42.722;23.268;2023-05-25T05:47:08;95091.81;;;16.83;80.62
42247;BME280;27913;42.722;23.268;2023-05-25T05:49:34;95096.00;;;16.91;80.60
42247;BME280;27913;42.722;23.268;2023-05-25T05:51:59;95068.94;;;16.82;80.12
42247;BME280;27913;42.722;23.268;2023-05-25T05:54:25;95083.69;;;16.97;79.80
42247;BME280;27913;42.722;23.268;2023-05-25T05:56:53;94955.34;;;16.41;79.90
42247;BME280;27913;42.722;23.268;2023-05-25T05:59:20;95098.31;;;17.61;78.88
42247;BME280;27913;42.722;23.268;2023-05-25T06:01:45;95098.44;;;17.78;76.74
42247;BME280;27913;42.722;23.268;2023-05-25T06:04:11;95095.34;;;17.81;75.85
42247;BME280;27913;42.722;23.268;2023-05-25T06:06:36;95022.44;;;17.34;76.78
42247;BME280;27913;42.722;23.268;2023-05-25T06:09:04;95047.00;;;17.60;76.11
42247;BME280;27913;42.722;23.268;2023-05-25T06:11:32;95094.97;;;18.02;75.14
42247;BME280;27913;42.722;23.268;2023-05-25T06:14:00;95096.25;;;17.99;75.53
42247;BME280;27913;42.722;23.268;2023-05-25T06:16:25;95054.25;;;17.89;75.35
42247;BME280;27913;42.722;23.268;2023-05-25T06:18:51;95037.84;;;18.04;74.75
42247;BME280;27913;42.722;23.268;2023-05-25T06:21:16;95088.22;;;18.47;74.86
42247;BME280;27913;42.722;23.268;2023-05-25T06:23:42;95005.09;;;18.16;74.08
42247;BME280;27913;42.722;23.268;2023-05-25T06:26:07;95098.19;;;18.93;73.96
42247;BME280;27913;42.722;23.268;2023-05-25T06:28:33;95094.59;;;18.99;72.38
42247;BME280;27913;42.722;23.268;2023-05-25T06:30:58;95075.03;;;18.93;71.97
42247;BME280;27913;42.722;23.268;2023-05-25T06:33:24;95068.53;;;18.89;72.15
42247;BME280;27913;42.722;23.268;2023-05-25T06:35:50;95082.47;;;18.79;72.23
42247;BME280;27913;42.722;23.268;2023-05-25T06:38:16;95089.38;;;18.92;72.33
42247;BME280;27913;42.722;23.268;2023-05-25T06:40:42;95103.31;;;19.24;71.60
42247;BME280;27913;42.722;23.268;2023-05-25T06:43:08;95102.72;;;19.22;71.63
42247;BME280;27913;42.722;23.268;2023-05-25T06:45:33;95107.34;;;19.43;71.27
42247;BME280;27913;42.722;23.268;2023-05-25T06:47:58;95091.84;;;19.40;70.67
42247;BME280;27913;42.722;23.268;2023-05-25T06:50:25;95108.00;;;19.51;71.28
42247;BME280;27913;42.722;23.268;2023-05-25T06:52:51;95108.34;;;19.72;71.67
42247;BME280;27913;42.722;23.268;2023-05-25T06:55:16;95025.66;;;19.54;70.66
42247;BME280;27913;42.722;23.268;2023-05-25T06:57:43;95103.50;;;19.86;70.36
42247;BME280;27913;42.722;23.268;2023-05-25T07:00:09;95057.19;;;19.75;70.20
42247;BME280;27913;42.722;23.268;2023-05-25T07:02:38;95014.19;;;19.71;70.44
42247;BME280;27913;42.722;23.268;2023-05-25T07:05:04;95066.84;;;19.98;71.27
42247;BME280;27913;42.722;23.268;2023-05-25T07:07:31;95101.97;;;20.07;71.61
42247;BME280;27913;42.722;23.268;2023-05-25T07:09:56;95058.22;;;20.08;70.45
42247;BME280;27913;42.722;23.268;2023-05-25T07:12:22;95109.53;;;20.33;69.86
42247;BME280;27913;42.722;23.268;2023-05-25T07:14:47;95070.69;;;19.51;71.69
42247;BME280;27913;42.722;23.268;2023-05-25T07:17:13;95091.22;;;19.85;71.70
42247;BME280;27913;42.722;23.268;2023-05-25T07:19:39;95047.22;;;19.87;70.88
42247;BME280;27913;42.722;23.268;2023-05-25T07:22:07;95087.13;;;20.56;71.44
42247;BME280;27913;42.722;23.268;2023-05-25T07:24:34;95099.78;;;20.44;71.74
42247;BME280;27913;42.722;23.268;2023-05-25T07:27:00;95106.00;;;20.49;71.11
42247;BME280;27913;42.722;23.268;2023-05-25T07:29:26;95087.88;;;20.51;70.83
42247;BME280;27913;42.722;23.268;2023-05-25T07:31:52;95108.84;;;20.43;71.29
42247;BME280;27913;42.722;23.268;2023-05-25T07:34:17;95111.00;;;20.23;69.54
42247;BME280;27913;42.722;23.268;2023-05-25T07:36:43;95020.22;;;19.84;67.67
42247;BME280;27913;42.722;23.268;2023-05-25T07:39:09;95113.69;;;20.46;67.08
42247;BME280;27913;42.722;23.268;2023-05-25T07:41:35;95110.13;;;20.57;66.53
42247;BME280;27913;42.722;23.268;2023-05-25T07:44:01;95022.22;;;20.11;64.72
42247;BME280;27913;42.722;23.268;2023-05-25T07:46:26;95028.72;;;19.80;62.92
42247;BME280;27913;42.722;23.268;2023-05-25T07:48:52;95115.63;;;20.11;63.64
42247;BME280;27913;42.722;23.268;2023-05-25T07:51:19;95112.53;;;20.02;63.98
42247;BME280;27913;42.722;23.268;2023-05-25T07:53:47;95106.00;;;19.58;65.49
42247;BME280;27913;42.722;23.268;2023-05-25T07:56:13;95047.41;;;19.00;67.43
42247;BME280;27913;42.722;23.268;2023-05-25T07:58:38;95053.41;;;19.07;68.42
42247;BME280;27913;42.722;23.268;2023-05-25T08:01:04;95082.53;;;19.26;68.80
42247;BME280;27913;42.722;23.268;2023-05-25T08:03:29;95029.44;;;18.78;69.28
42247;BME280;27913;42.722;23.268;2023-05-25T08:05:55;95129.16;;;19.23;70.37
42247;BME280;27913;42.722;23.268;2023-05-25T08:08:20;95147.38;;;19.02;69.94
42247;BME280;27913;42.722;23.268;2023-05-25T08:10:46;95153.97;;;18.70;70.75
42247;BME280;27913;42.722;23.268;2023-05-25T08:13:12;95126.69;;;18.15;72.17
42247;BME280;27913;42.722;23.268;2023-05-25T08:15:37;95160.13;;;17.99;73.31
42247;BME280;27913;42.722;23.268;2023-05-25T08:18:03;95117.94;;;17.48;75.46
42247;BME280;27913;42.722;23.268;2023-05-25T08:20:29;95138.13;;;17.37;77.00
42247;BME280;27913;42.722;23.268;2023-05-25T08:22:54;95176.03;;;17.32;77.46
42247;BME280;27913;42.722;23.268;2023-05-25T08:25:20;95139.72;;;17.07;75.90
42247;BME280;27913;42.722;23.268;2023-05-25T08:27:46;95178.13;;;17.11;79.72
42247;BME280;27913;42.722;23.268;2023-05-25T08:30:12;95168.09;;;16.95;85.11
42247;BME280;27913;42.722;23.268;2023-05-25T08:32:37;95140.28;;;16.78;87.83
42247;BME280;27913;42.722;23.268;2023-05-25T08:35:03;95165.28;;;16.89;88.13
42247;BME280;27913;42.722;23.268;2023-05-25T08:37:30;95098.50;;;16.36;86.83
42247;BME280;27913;42.722;23.268;2023-05-25T08:39:56;95116.19;;;16.42;86.64
42247;BME280;27913;42.722;23.268;2023-05-25T08:42:21;95167.22;;;16.82;86.34
42247;BME280;27913;42.722;23.268;2023-05-25T08:44:48;95138.97;;;16.69;86.09
42247;BME280;27913;42.722;23.268;2023-05-25T08:47:15;95120.03;;;16.65;86.45
42247;BME280;27913;42.722;23.268;2023-05-25T08:49:43;95145.78;;;16.96;86.27
42247;BME280;27913;42.722;23.268;2023-05-25T08:52:10;95173.16;;;17.15;86.64
42247;BME280;27913;42.722;23.268;2023-05-25T08:54:38;95151.84;;;17.03;85.91
42247;BME280;27913;42.722;23.268;2023-05-25T09:00:29;95127.91;;;16.72;91.29
42247;BME280;27913;42.722;23.268;2023-05-25T09:03:03;95157.38;;;16.64;93.05
42247;BME280;27913;42.722;23.268;2023-05-25T09:05:33;95138.50;;;16.16;93.54
42247;BME280;27913;42.722;23.268;2023-05-25T09:08:02;95173.91;;;16.28;93.95
42247;BME280;27913;42.722;23.268;2023-05-25T09:10:29;95127.00;;;15.71;95.95
42247;BME280;27913;42.722;23.268;2023-05-25T09:12:57;95173.78;;;15.91;98.43
42247;BME280;27913;42.722;23.268;2023-05-25T09:15:23;95068.00;;;14.99;100.00
42247;BME280;27913;42.722;23.268;2023-05-25T09:17:49;95205.78;;;15.64;100.00
42247;BME280;27913;42.722;23.268;2023-05-25T09:20:15;95071.88;;;15.03;100.00
42247;BME280;27913;42.722;23.268;2023-05-25T09:22:43;95201.78;;;16.12;100.00
42247;BME280;27913;42.722;23.268;2023-05-25T09:25:09;95194.41;;;16.40;100.00
42247;BME280;27913;42.722;23.268;2023-05-25T09:27:36;95169.53;;;16.34;100.00
42247;BME280;27913;42.722;23.268;2023-05-25T09:30:03;95175.25;;;16.57;100.00
42247;BME280;27913;42.722;23.268;2023-05-25T09:32:29;95131.59;;;16.34;100.00
42247;BME280;27913;42.722;23.268;2023-05-25T09:34:54;95165.53;;;16.69;100.00
42247;BME280;27913;42.722;23.268;2023-05-25T09:37:22;95106.00;;;16.39;100.00
42247;BME280;27913;42.722;23.268;2023-05-25T09:39:50;95193.03;;;16.94;100.00
42247;BME280;27913;42.722;23.268;2023-05-25T09:42:16;95174.63;;;16.92;100.00
42247;BME280;27913;42.722;23.268;2023-05-25T09:44:42;95160.13;;;16.95;100.00
42247;BME280;27913;42.722;23.268;2023-05-25T09:47:08;95184.06;;;17.25;100.00
42247;BME280;27913;42.722;23.268;2023-05-25T09:49:34;95195.16;;;17.22;100.00
42247;BME280;27913;42.722;23.268;2023-05-25T09:52:00;95168.22;;;17.19;100.00
42247;BME280;27913;42.722;23.268;2023-05-25T09:54:28;95186.56;;;17.39;100.00
42247;BME280;27913;42.722;23.268;2023-05-25T09:56:54;95164.22;;;17.28;100.00
42247;BME280;27913;42.722;23.268;2023-05-25T09:59:21;95145.88;;;17.38;100.00
42247;BME280;27913;42.722;23.268;2023-05-25T10:01:50;95181.22;;;17.82;100.00
42247;BME280;27913;42.722;23.268;2023-05-25T10:04:16;95177.56;;;17.95;100.00
42247;BME280;27913;42.722;23.268;2023-05-25T10:06:42;95147.34;;;17.89;98.56
42247;BME280;27913;42.722;23.268;2023-05-25T10:09:10;95140.66;;;17.98;96.50
42247;BME280;27913;42.722;23.268;2023-05-25T10:11:39;95138.13;;;18.04;94.61
42247;BME280;27913;42.722;23.268;2023-05-25T10:14:08;95183.34;;;18.04;90.43
42247;BME280;27913;42.722;23.268;2023-05-25T10:16:35;95088.97;;;17.70;93.05
42247;BME280;27913;42.722;23.268;2023-05-25T10:19:09;95160.13;;;18.47;94.26
42247;BME280;27913;42.722;23.268;2023-05-25T10:21:37;95110.63;;;18.22;93.19
42247;BME280;27913;42.722;23.268;2023-05-25T10:24:07;95159.88;;;17.89;90.06
42247;BME280;27913;42.722;23.268;2023-05-25T10:26:39;95155.44;;;17.70;91.26
42247;BME280;27913;42.722;23.268;2023-05-25T10:29:06;95109.66;;;17.68;91.97
42247;BME280;27913;42.722;23.268;2023-05-25T10:31:34;95146.47;;;18.19;90.73
42247;BME280;27913;42.722;23.268;2023-05-25T10:34:02;95090.81;;;17.94;91.58
42247;BME280;27913;42.722;23.268;2023-05-25T10:36:28;95091.75;;;18.23;91.43
42247;BME280;27913;42.722;23.268;2023-05-25T10:38:54;95079.59;;;18.28;90.07
42247;BME280;27913;42.722;23.268;2023-05-25T10:41:20;95003.69;;;18.01;89.19
42247;BME280;27913;42.722;23.268;2023-05-25T10:43:46;95093.28;;;18.73;86.88
42247;BME280;27913;42.722;23.268;2023-05-25T10:46:12;95124.34;;;18.96;84.77
42247;BME280;27913;42.722;23.268;2023-05-25T10:48:45;95096.25;;;18.88;85.19
42247;BME280;27913;42.722;23.268;2023-05-25T10:51:11;95114.34;;;19.03;84.23
42247;BME280;27913;42.722;23.268;2023-05-25T10:53:38;95114.34;;;19.15;85.23
42247;BME280;27913;42.722;23.268;2023-05-25T10:56:07;94966.28;;;18.32;85.20
42247;BME280;27913;42.722;23.268;2023-05-25T10:58:34;95074.59;;;19.14;85.02
42247;BME280;27913;42.722;23.268;2023-05-25T11:01:08;95102.16;;;19.19;84.36
42247;BME280;27913;42.722;23.268;2023-05-25T11:06:13;95060.16;;;18.68;82.89
42247;BME280;27913;42.722;23.268;2023-05-25T11:08:56;95069.97;;;18.80;84.06
42247;BME280;27913;42.722;23.268;2023-05-25T11:17:13;95075.59;;;18.95;83.04
42247;BME280;27913;42.722;23.268;2023-05-25T11:19:50;95073.59;;;19.03;84.04
42247;BME280;27913;42.722;23.268;2023-05-25T11:22:18;94975.00;;;18.56;83.73
42247;BME280;27913;42.722;23.268;2023-05-25T11:24:51;95101.69;;;19.40;83.22
42247;BME280;27913;42.722;23.268;2023-05-25T11:27:28;95024.19;;;18.25;83.50
42247;BME280;27913;42.722;23.268;2023-05-25T11:29:54;95111.63;;;18.33;85.92
42247;BME280;27913;42.722;23.268;2023-05-25T11:32:26;95110.25;;;18.42;85.37
42247;BME280;27913;42.722;23.268;2023-05-25T11:34:55;95109.22;;;18.31;87.22
42247;BME280;27913;42.722;23.268;2023-05-25T11:37:24;95108.88;;;18.16;86.74
42247;BME280;27913;42.722;23.268;2023-05-25T11:39:51;95105.41;;;18.15;87.23
42247;BME280;27913;42.722;23.268;2023-05-25T11:42:22;95101.13;;;18.26;84.73
42247;BME280;27913;42.722;23.268;2023-05-25T11:44:48;95053.00;;;17.92;85.10
42247;BME280;27913;42.722;23.268;2023-05-25T11:47:14;95096.72;;;18.08;86.60
42247;BME280;27913;42.722;23.268;2023-05-25T11:49:44;95099.00;;;17.80;88.70
42247;BME280;27913;42.722;23.268;2023-05-25T11:52:14;95100.97;;;17.73;87.33
42247;BME280;27913;42.722;23.268;2023-05-25T11:54:40;94988.06;;;16.97;87.54
42247;BME280;27913;42.722;23.268;2023-05-25T11:57:13;95044.88;;;17.62;83.12
42247;BME280;27913;42.722;23.268;2023-05-25T11:59:40;95041.19;;;17.87;80.92
42247;BME280;27913;42.722;23.268;2023-05-25T12:02:11;95049.97;;;18.24;81.28
42247;BME280;27913;42.722;23.268;2023-05-25T12:04:37;95085.72;;;18.81;79.54
42247;BME280;27913;42.722;23.268;2023-05-25T12:07:04;95077.97;;;19.09;79.78
42247;BME280;27913;42.722;23.268;2023-05-25T12:09:30;95037.84;;;19.16;79.72
42247;BME280;27913;42.722;23.268;2023-05-25T12:11:57;95082.16;;;19.68;79.28
42247;BME280;27913;42.722;23.268;2023-05-25T12:14:23;95004.09;;;19.39;78.00
42247;BME280;27913;42.722;23.268;2023-05-25T12:16:49;95076.72;;;19.98;74.72
42247;BME280;27913;42.722;23.268;2023-05-25T12:19:15;95007.66;;;19.62;73.71
42247;BME280;27913;42.722;23.268;2023-05-25T12:21:42;95026.03;;;19.80;70.17
42247;BME280;27913;42.722;23.268;2023-05-25T12:24:08;95063.00;;;20.28;67.13
42247;BME280;27913;42.722;23.268;2023-05-25T12:26:51;94963.97;;;19.85;62.64
42247;BME280;27913;42.722;23.268;2023-05-25T12:29:21;95058.25;;;20.31;64.78
42247;BME280;27913;42.722;23.268;2023-05-25T12:31:47;95035.94;;;20.42;63.19
42247;BME280;27913;42.722;23.268;2023-05-25T12:34:17;95055.75;;;20.46;61.08
42247;BME280;27913;42.722;23.268;2023-05-25T12:36:50;95040.34;;;20.31;60.62
42247;BME280;27913;42.722;23.268;2023-05-25T12:41:53;94946.88;;;20.31;60.23
42247;BME280;27913;42.722;23.268;2023-05-25T12:44:31;95013.72;;;20.86;59.52
42247;BME280;27913;42.722;23.268;2023-05-25T12:47:20;95042.56;;;21.40;59.98
42247;BME280;27913;42.722;23.268;2023-05-25T12:50:10;95038.53;;;21.75;59.75
42247;BME280;27913;42.722;23.268;2023-05-25T12:52:37;95000.34;;;21.85;57.00
42247;BME280;27913;42.722;23.268;2023-05-25T12:57:50;94988.56;;;22.40;57.23
42247;BME280;27913;42.722;23.268;2023-05-25T13:00:23;94983.72;;;22.37;56.50
42247;BME280;27913;42.722;23.268;2023-05-25T13:02:50;94977.31;;;22.43;56.48
42247;BME280;27913;42.722;23.268;2023-05-25T13:05:26;95001.25;;;22.76;56.05
42247;BME280;27913;42.722;23.268;2023-05-25T13:07:56;95005.66;;;22.33;56.88
42247;BME280;27913;42.722;23.268;2023-05-25T13:10:22;94956.81;;;22.05;57.71
42247;BME280;27913;42.722;23.268;2023-05-25T13:12:48;94908.22;;;21.76;55.18
42247;BME280;27913;42.722;23.268;2023-05-25T13:15:18;94897.63;;;21.96;56.19